Time;durP1;ratioP1;P1;durP2;ratioP2;P2;SDS_P1;SDS_P2;PMS_P1;PMS_P2;Temp;Humidity;BMP_temperature;BMP_pressure;BME280_temperature;BME280_humidity;BME280_pressure;Samples;Min_cycle;Max_cycle;Signal;HPM_P1;HPM_P2
2022/04/18 00:00:34;;;;;;;;;4.75;4.75;;;;;14.20;32.85;100899.25;5076753;28;45782;-71
2022/04/18 00:03:03;;;;;;;;;2.00;2.00;;;;;14.23;32.82;100908.84;5078034;27;46076;-71
2022/04/18 00:05:30;;;;;;;;;3.75;3.00;;;;;14.20;32.32;100911.66;5077502;27;45335;-71
2022/04/18 00:07:55;;;;;;;;;2.75;2.75;;;;;14.16;32.42;100910.94;5077619;27;45329;-69
2022/04/18 00:10:21;;;;;;;;;3.00;3.00;;;;;14.13;32.84;100904.03;5076657;27;45564;-70
2022/04/18 00:12:46;;;;;;;;;2.50;2.50;;;;;14.05;32.79;100895.63;5077651;27;46230;-71
2022/04/18 00:15:12;;;;;;;;;2.00;2.00;;;;;14.03;33.46;100895.69;5077712;27;45344;-69
2022/04/18 00:17:37;;;;;;;;;3.00;3.00;;;;;14.04;33.04;100893.91;5076339;28;45400;-71
2022/04/18 00:20:04;;;;;;;;;3.00;3.00;;;;;13.99;33.06;100894.13;5076204;28;45577;-70
2022/04/18 00:22:29;;;;;;;;;6.00;5.00;;;;;13.95;33.12;100887.28;5077095;27;46072;-71
2022/04/18 00:24:55;;;;;;;;;3.00;3.00;;;;;13.94;32.94;100893.50;5077589;27;45157;-72
2022/04/18 00:27:20;;;;;;;;;2.75;2.00;;;;;13.89;33.04;100884.94;5077409;27;45250;-73
2022/04/18 00:29:47;;;;;;;;;2.75;2.00;;;;;13.87;33.12;100881.50;5078230;27;45373;-70
2022/04/18 00:32:13;;;;;;;;;4.00;3.75;;;;;13.86;33.32;100890.38;5077803;27;46180;-71
2022/04/18 00:34:39;;;;;;;;;4.00;2.25;;;;;13.82;32.96;100871.19;5077018;27;45359;-70
2022/04/18 00:37:04;;;;;;;;;2.00;2.00;;;;;13.79;32.90;100870.44;5075883;28;45275;-71
2022/04/18 00:39:30;;;;;;;;;2.00;2.00;;;;;13.75;33.05;100861.81;5077502;27;45441;-69
2022/04/18 00:41:55;;;;;;;;;5.50;3.00;;;;;13.77;33.01;100867.88;5077370;27;45519;-72
2022/04/18 00:44:21;;;;;;;;;2.00;2.00;;;;;13.74;32.72;100870.66;5077286;27;45377;-72
2022/04/18 00:46:46;;;;;;;;;4.00;2.00;;;;;13.72;33.07;100864.59;5077089;27;45388;-72
2022/04/18 00:49:12;;;;;;;;;2.25;2.25;;;;;13.73;32.98;100864.53;5077212;27;45243;-71
2022/04/18 00:51:37;;;;;;;;;5.25;3.00;;;;;13.69;33.13;100856.81;5076788;27;45463;-71
2022/04/18 00:54:03;;;;;;;;;2.25;2.25;;;;;13.71;32.98;100852.31;5076701;27;45279;-71
2022/04/18 00:56:28;;;;;;;;;2.00;2.00;;;;;13.72;32.95;100859.31;5076964;27;45505;-70
2022/04/18 00:58:55;;;;;;;;;2.00;2.00;;;;;13.67;33.07;100848.09;5077356;27;45410;-72
2022/04/18 01:01:20;;;;;;;;;2.00;2.00;;;;;13.68;33.14;100855.97;5076749;27;45449;-70
2022/04/18 01:03:46;;;;;;;;;2.25;2.25;;;;;13.66;33.24;100862.25;5076644;27;45332;-70
2022/04/18 01:06:14;;;;;;;;;2.00;2.00;;;;;13.63;32.94;100857.13;5076718;27;45275;-71
2022/04/18 01:08:41;;;;;;;;;4.00;2.50;;;;;13.58;33.15;100855.56;5076886;27;45486;-72
2022/04/18 01:11:09;;;;;;;;;4.00;4.00;;;;;13.57;33.49;100858.28;5076284;27;45448;-72
2022/04/18 01:13:50;;;;;;;;;2.75;2.75;;;;;13.52;33.14;100853.22;5075036;28;45246;-71
2022/04/18 01:16:15;;;;;;;;;2.00;2.00;;;;;13.48;33.12;100864.03;5076649;27;45402;-72
2022/04/18 01:18:41;;;;;;;;;1.50;1.50;;;;;13.44;32.94;100855.38;5076800;27;45542;-72
2022/04/18 01:21:08;;;;;;;;;4.00;2.00;;;;;13.38;33.29;100850.34;5076237;28;46307;-72
2022/04/18 01:23:33;;;;;;;;;1.50;1.50;;;;;13.35;33.28;100853.13;5075300;28;45444;-70
2022/04/18 01:28:58;;;;;;;;;2.00;2.00;;;;;13.27;33.69;100846.44;5076812;28;45369;-71
2022/04/18 01:31:31;;;;;;;;;4.00;2.25;;;;;13.24;33.58;100856.25;5076109;27;45344;-72
2022/04/18 01:33:57;;;;;;;;;6.00;5.00;;;;;13.18;33.93;100841.56;5076505;27;45251;-70
2022/04/18 01:36:24;;;;;;;;;3.50;3.25;;;;;13.13;34.19;100840.94;5076345;27;45244;-72
2022/04/18 01:38:50;;;;;;;;;3.00;3.00;;;;;13.06;34.05;100836.88;5076502;27;45575;-72
2022/04/18 01:41:15;;;;;;;;;3.00;3.00;;;;;13.04;34.03;100839.56;5075881;27;46301;-70
2022/04/18 01:43:40;;;;;;;;;3.00;3.00;;;;;13.02;34.55;100838.78;5076135;27;45468;-71
2022/04/18 01:46:06;;;;;;;;;3.50;2.75;;;;;12.93;34.51;100824.25;5076119;27;45327;-71
2022/04/18 01:48:31;;;;;;;;;3.00;3.00;;;;;12.91;34.54;100826.09;5076373;27;45631;-69
2022/04/18 01:50:56;;;;;;;;;2.75;2.75;;;;;12.84;34.38;100820.22;5076271;27;45341;-70
2022/04/18 01:53:22;;;;;;;;;4.00;4.00;;;;;12.85;34.60;100829.88;5076170;27;45396;-70
2022/04/18 01:55:48;;;;;;;;;4.00;4.00;;;;;12.83;35.17;100825.59;5076277;27;45366;-71
2022/04/18 01:58:14;;;;;;;;;2.00;2.00;;;;;12.78;34.47;100828.44;5076228;27;45384;-71
2022/04/18 02:00:39;;;;;;;;;3.00;3.00;;;;;12.75;34.91;100830.38;5075979;27;45498;-72
2022/04/18 02:03:05;;;;;;;;;3.00;3.00;;;;;12.72;35.02;100834.00;5076064;27;45335;-69
2022/04/18 02:05:30;;;;;;;;;5.25;4.00;;;;;12.67;34.83;100818.34;5074598;28;45355;-70
2022/04/18 02:07:55;;;;;;;;;2.50;2.50;;;;;12.63;35.42;100821.22;5076499;27;45505;-69
2022/04/18 02:10:21;;;;;;;;;3.25;3.25;;;;;12.63;35.37;100824.69;5075789;27;46075;-73
2022/04/18 02:12:46;;;;;;;;;2.67;2.67;;;;;12.59;34.93;100828.38;5075757;27;45302;-71
2022/04/18 02:15:12;;;;;;;;;3.00;3.00;;;;;12.55;35.38;100819.78;5075981;27;45402;-70
2022/04/18 02:17:37;;;;;;;;;2.00;2.00;;;;;12.53;35.29;100826.03;5075880;27;45148;-72
2022/04/18 02:20:03;;;;;;;;;5.00;5.00;;;;;12.48;35.50;100820.97;5075704;27;45463;-72
2022/04/18 02:22:30;;;;;;;;;3.00;3.00;;;;;12.41;35.50;100814.25;5075978;28;45411;-72
2022/04/18 02:24:57;;;;;;;;;2.75;2.00;;;;;12.40;35.69;100821.28;5075725;27;45318;-70
2022/04/18 02:27:23;;;;;;;;;5.00;5.00;;;;;12.36;35.36;100819.72;5075630;27;45298;-71
2022/04/18 02:29:48;;;;;;;;;6.00;5.00;;;;;12.35;35.44;100825.06;5075361;27;45452;-71
2022/04/18 02:34:58;;;;;;;;;2.00;2.00;;;;;12.27;36.12;100818.38;5074883;28;45310;-71
2022/04/18 02:37:23;;;;;;;;;2.00;2.00;;;;;12.23;35.95;100811.50;5075544;27;45631;-70
2022/04/18 02:39:48;;;;;;;;;3.00;3.00;;;;;12.16;35.86;100799.47;5075092;28;46300;-72
2022/04/18 02:42:14;;;;;;;;;3.00;3.00;;;;;12.16;36.08;100809.19;5075171;27;45366;-69
2022/04/18 02:44:42;;;;;;;;;2.75;2.75;;;;;12.13;35.78;100805.75;5075327;27;45397;-70
2022/04/18 02:47:07;;;;;;;;;4.75;4.25;;;;;12.06;35.77;100798.16;5075403;27;45462;-72
2022/04/18 02:49:32;;;;;;;;;3.00;3.00;;;;;12.04;36.24;100795.63;5075482;27;46527;-72
2022/04/18 02:51:58;;;;;;;;;4.00;4.00;;;;;12.06;36.22;100803.44;5073990;28;45403;-71
2022/04/18 02:54:23;;;;;;;;;5.00;3.50;;;;;11.99;36.35;100792.28;5075466;27;45230;-72
2022/04/18 02:56:48;;;;;;;;;2.75;2.75;;;;;11.94;36.56;100792.47;5075438;28;45185;-71
2022/04/18 02:59:13;;;;;;;;;3.50;3.00;;;;;11.93;36.18;100797.81;5074975;27;45631;-71
2022/04/18 03:01:39;;;;;;;;;5.75;4.00;;;;;11.88;36.52;100797.16;5074822;28;45237;-72
2022/04/18 03:04:04;;;;;;;;;3.25;3.25;;;;;11.86;36.55;100797.19;5075365;27;45366;-72
2022/04/18 03:06:29;;;;;;;;;2.00;2.00;;;;;11.81;36.39;100805.31;5074178;28;45420;-71
2022/04/18 03:08:55;;;;;;;;;4.00;4.00;;;;;11.75;36.67;100794.16;5073537;28;47920;-72
2022/04/18 03:11:20;;;;;;;;;12.00;10.50;;;;;11.73;36.79;100801.28;5074532;27;45303;-70
2022/04/18 03:13:46;;;;;;;;;6.00;6.00;;;;;11.59;37.28;100784.25;5073265;28;45319;-72
2022/04/18 03:16:13;;;;;;;;;2.50;2.50;;;;;11.65;37.34;100798.94;5074601;27;45417;-72
2022/04/18 03:18:39;;;;;;;;;4.50;4.00;;;;;11.60;37.46;100793.00;5074396;27;45499;-71
2022/04/18 03:21:05;;;;;;;;;0.75;0.00;;;;;11.59;37.17;100793.94;5074753;28;45500;-69
2022/04/18 03:23:31;;;;;;;;;4.75;3.50;;;;;11.55;37.09;100791.41;5075166;27;45377;-70
2022/04/18 03:25:57;;;;;;;;;4.50;3.00;;;;;11.50;37.52;100784.66;5074926;27;45256;-69
2022/04/18 03:28:23;;;;;;;;;2.00;0.00;;;;;11.49;37.22;100799.56;5074593;27;46017;-70
2022/04/18 03:30:49;;;;;;;;;4.00;2.25;;;;;11.45;37.64;100786.59;5073242;28;45787;-69
2022/04/18 03:33:14;;;;;;;;;3.00;3.00;;;;;11.42;37.82;100795.47;5072746;28;45462;-71
2022/04/18 03:39:50;;;;;;;;;3.50;3.50;;;;;11.38;37.87;100800.03;5074774;27;45409;-71
2022/04/18 03:41:09;;;;;;;;;4.00;2.75;;;;;11.33;37.48;100793.22;5074241;28;45257;-69
2022/04/18 03:43:35;;;;;;;;;2.50;2.50;;;;;11.29;37.98;100792.50;5074642;27;45401;-70
2022/04/18 03:46:00;;;;;;;;;3.00;3.00;;;;;11.29;37.86;100794.25;5077703;27;45532;-70
2022/04/18 03:48:26;;;;;;;;;3.50;3.50;;;;;11.26;37.88;100790.00;5077822;27;45380;-71
2022/04/18 03:50:51;;;;;;;;;3.00;3.00;;;;;11.19;37.88;100783.25;5077805;27;45449;-69
2022/04/18 03:53:17;;;;;;;;;3.00;3.00;;;;;11.19;37.74;100781.47;5077936;27;45279;-71
2022/04/18 03:55:42;;;;;;;;;3.50;3.50;;;;;11.15;38.38;100779.88;5077878;27;45305;-72
2022/04/18 03:58:07;;;;;;;;;4.00;4.00;;;;;11.13;38.29;100781.69;5076332;28;46995;-68
2022/04/18 04:00:34;;;;;;;;;5.00;3.50;;;;;11.13;38.03;100784.34;5077771;27;45262;-69
2022/04/18 04:03:00;;;;;;;;;4.00;2.50;;;;;11.09;38.42;100775.69;5076607;28;45256;-70
2022/04/18 04:05:25;;;;;;;;;4.25;4.00;;;;;11.05;38.06;100774.09;5078006;27;45267;-70
2022/04/18 04:07:51;;;;;;;;;4.00;4.00;;;;;11.08;38.27;100783.66;5077494;27;45455;-71
2022/04/18 04:10:16;;;;;;;;;5.75;5.75;;;;;11.05;37.81;100784.63;5077699;27;45416;-69
2022/04/18 04:12:41;;;;;;;;;3.50;3.50;;;;;11.05;38.24;100781.16;5077839;27;45622;-70
2022/04/18 04:15:07;;;;;;;;;2.00;2.00;;;;;11.03;38.08;100775.09;5078162;27;45556;-70
2022/04/18 04:17:33;;;;;;;;;4.00;4.00;;;;;11.01;38.36;100777.75;5077711;28;46535;-68
2022/04/18 04:19:58;;;;;;;;;3.00;3.00;;;;;11.00;38.32;100775.19;5078013;27;45255;-71
2022/04/18 04:22:23;;;;;;;;;3.25;3.25;;;;;10.92;38.44;100757.94;5078131;27;45318;-71
2022/04/18 04:24:49;;;;;;;;;3.25;3.25;;;;;10.98;38.48;100779.66;5077709;27;45629;-69
2022/04/18 04:27:14;;;;;;;;;4.00;4.00;;;;;10.96;38.45;100779.72;5077377;27;46244;-70
2022/04/18 04:29:39;;;;;;;;;3.00;3.00;;;;;10.88;38.07;100766.00;5077649;27;45466;-71
2022/04/18 04:32:05;;;;;;;;;4.50;3.00;;;;;10.86;38.28;100771.34;5077675;27;45522;-73
2022/04/18 04:34:30;;;;;;;;;4.50;4.50;;;;;10.88;38.69;100776.53;5077671;27;45536;-71
2022/04/18 04:36:56;;;;;;;;;4.50;4.00;;;;;10.85;38.97;100772.25;5077192;27;45645;-71
2022/04/18 04:39:21;;;;;;;;;2.00;2.00;;;;;10.80;39.01;100771.56;5077408;27;45524;-71
2022/04/18 04:41:47;;;;;;;;;3.25;3.25;;;;;10.79;39.12;100775.97;5077669;27;45300;-72
2022/04/18 04:44:12;;;;;;;;;5.75;4.00;;;;;10.78;39.30;100781.28;5077823;27;45469;-71
2022/04/18 04:46:38;;;;;;;;;4.00;4.00;;;;;10.77;39.71;100783.06;5077727;27;45449;-71
2022/04/18 04:49:03;;;;;;;;;5.25;4.25;;;;;10.78;39.39;100794.44;5077474;27;45285;-70
2022/04/18 04:51:29;;;;;;;;;6.00;6.00;;;;;10.77;39.87;100788.31;5077067;27;45343;-71
2022/04/18 04:53:54;;;;;;;;;6.50;3.75;;;;;10.72;39.83;100777.09;5075817;28;45409;-71
2022/04/18 04:56:21;;;;;;;;;3.75;3.75;;;;;10.76;39.92;100780.50;5075942;27;45392;-69
2022/04/18 04:58:47;;;;;;;;;6.25;6.25;;;;;10.68;40.07;100767.63;5077096;27;45394;-71
2022/04/18 05:01:12;;;;;;;;;5.00;5.00;;;;;10.75;40.04;100773.53;5077069;27;45303;-70
2022/04/18 05:03:38;;;;;;;;;1.25;1.25;;;;;10.72;40.20;100779.75;5077763;27;45163;-70
2022/04/18 05:06:03;;;;;;;;;3.75;3.75;;;;;10.72;39.85;100787.63;5076731;27;46445;-69
2022/04/18 05:08:28;;;;;;;;;6.50;5.25;;;;;10.60;40.05;100770.56;5076966;27;45260;-72
2022/04/18 05:10:55;;;;;;;;;5.00;5.00;;;;;10.69;40.12;100785.13;5077130;27;45377;-71
2022/04/18 05:13:22;;;;;;;;;5.75;4.50;;;;;10.72;40.42;100778.91;5077071;27;45855;-70
2022/04/18 05:15:47;;;;;;;;;5.25;5.25;;;;;10.69;40.71;100776.38;5076253;27;45495;-72
2022/04/18 05:18:13;;;;;;;;;8.00;6.00;;;;;10.75;41.37;100786.69;5076786;27;45354;-73
2022/04/18 05:20:38;;;;;;;;;6.00;6.00;;;;;10.74;40.99;100792.84;5077158;27;45308;-70
2022/04/18 05:23:03;;;;;;;;;8.50;7.25;;;;;10.75;41.79;100781.41;5077097;27;45668;-68
2022/04/18 05:25:30;;;;;;;;;5.75;5.75;;;;;10.75;41.51;100784.88;5076392;27;46088;-71
2022/04/18 05:27:55;;;;;;;;;6.00;6.00;;;;;10.76;41.17;100794.50;5076480;28;45397;-70
2022/04/18 05:30:21;;;;;;;;;6.00;6.00;;;;;10.75;41.96;100795.41;5076218;27;45543;-69
2022/04/18 05:32:46;;;;;;;;;8.25;8.25;;;;;10.77;41.87;100792.75;5076691;27;45432;-71
2022/04/18 05:35:11;;;;;;;;;5.50;5.50;;;;;10.77;41.63;100795.38;5076551;27;45304;-69
2022/04/18 05:37:37;;;;;;;;;4.00;4.00;;;;;10.79;40.91;100804.06;5076610;27;45201;-70
2022/04/18 05:40:02;;;;;;;;;6.00;6.00;;;;;10.75;40.98;100792.78;5074745;28;45290;-69
2022/04/18 05:42:28;;;;;;;;;8.00;8.00;;;;;10.81;41.08;100797.81;5074976;28;45275;-71
2022/04/18 05:44:53;;;;;;;;;3.75;3.75;;;;;10.84;41.75;100802.13;5075877;27;45456;-70
2022/04/18 05:47:18;;;;;;;;;7.75;7.75;;;;;10.83;41.17;100797.78;5076152;27;45312;-69
2022/04/18 05:49:44;;;;;;;;;5.00;5.00;;;;;10.91;40.99;100814.13;5076239;27;45298;-70
2022/04/18 05:52:09;;;;;;;;;5.75;5.50;;;;;10.94;41.18;100819.28;5076727;28;45314;-70
2022/04/18 05:54:35;;;;;;;;;5.00;5.00;;;;;10.98;40.50;100811.25;5074704;28;47198;-70
2022/04/18 05:57:03;;;;;;;;;11.50;11.50;;;;;11.00;40.61;100807.63;5076175;27;45490;-69
2022/04/18 05:59:28;;;;;;;;;5.50;5.50;;;;;11.04;39.99;100816.28;5076477;27;45464;-69
2022/04/18 06:01:53;;;;;;;;;3.50;3.50;;;;;11.07;40.04;100814.38;5076554;27;45496;-72
2022/04/18 06:04:19;;;;;;;;;5.25;5.00;;;;;11.13;39.84;100826.47;5074775;28;47526;-71
2022/04/18 06:06:44;;;;;;;;;4.00;4.00;;;;;11.16;40.17;100820.22;5076143;27;45290;-71
2022/04/18 06:09:09;;;;;;;;;2.50;2.50;;;;;11.23;39.84;100816.44;5076459;27;45393;-71
2022/04/18 06:11:35;;;;;;;;;5.00;5.00;;;;;11.27;39.84;100825.06;5074758;28;45182;-72
2022/04/18 06:14:00;;;;;;;;;4.00;4.00;;;;;11.28;39.47;100816.25;5075720;27;46298;-70
2022/04/18 06:16:26;;;;;;;;;5.00;5.00;;;;;11.42;39.81;100835.00;5074333;27;45214;-71
2022/04/18 06:18:51;;;;;;;;;5.00;5.00;;;;;11.46;39.82;100822.56;5075849;27;45259;-71
2022/04/18 06:21:16;;;;;;;;;4.00;4.00;;;;;11.55;39.55;100824.81;5075939;28;45329;-73
2022/04/18 06:23:42;;;;;;;;;3.25;3.25;;;;;11.65;38.89;100825.28;5075756;27;45427;-72
2022/04/18 06:26:07;;;;;;;;;4.75;4.75;;;;;11.72;39.25;100829.44;5075619;27;45255;-72
2022/04/18 06:28:32;;;;;;;;;4.00;4.00;;;;;11.78;38.88;100818.63;5075475;27;45244;-72
2022/04/18 06:30:58;;;;;;;;;5.50;5.00;;;;;11.90;38.92;100829.59;5075992;27;45354;-73
2022/04/18 06:33:23;;;;;;;;;6.00;4.75;;;;;11.98;38.53;100830.97;5075483;27;51120;-70
2022/04/18 06:35:48;;;;;;;;;9.00;6.00;;;;;12.05;38.29;100830.72;5075601;27;45314;-69
2022/04/18 06:38:14;;;;;;;;;5.75;5.75;;;;;12.16;38.24;100839.03;5076193;27;45288;-69
2022/04/18 06:40:39;;;;;;;;;6.50;6.25;;;;;12.23;37.96;100826.47;5075835;27;45466;-71
2022/04/18 06:43:05;;;;;;;;;4.50;4.50;;;;;12.28;38.41;100837.66;5075307;27;45280;-70
2022/04/18 06:45:31;;;;;;;;;5.50;5.50;;;;;12.29;38.22;100822.72;5074017;28;45717;-71
2022/04/18 06:47:56;;;;;;;;;9.00;6.00;;;;;12.28;38.42;100827.13;5075265;27;45332;-70
2022/04/18 06:50:22;;;;;;;;;5.75;5.00;;;;;12.33;37.84;100827.78;5073961;28;45458;-70
2022/04/18 06:52:49;;;;;;;;;5.00;5.00;;;;;12.34;37.88;100831.28;5075136;27;46542;-71
2022/04/18 06:55:16;;;;;;;;;6.00;6.00;;;;;12.37;38.07;100825.88;5075583;27;45326;-71
2022/04/18 06:57:41;;;;;;;;;5.00;5.00;;;;;12.35;37.68;100815.38;5075604;27;45292;-71
2022/04/18 07:00:07;;;;;;;;;5.25;5.00;;;;;12.38;37.95;100823.16;5075351;27;45361;-69
2022/04/18 07:02:33;;;;;;;;;5.50;5.50;;;;;12.37;38.08;100824.06;5075173;28;47577;-70
2022/04/18 07:04:59;;;;;;;;;4.50;4.50;;;;;12.36;38.27;100822.34;5073843;28;45273;-70
2022/04/18 07:07:24;;;;;;;;;9.00;8.75;;;;;12.33;37.93;100826.94;5074214;28;45297;-72
2022/04/18 07:09:49;;;;;;;;;6.00;6.00;;;;;12.31;38.06;100824.34;5075791;28;45477;-70
2022/04/18 07:12:20;;;;;;;;;8.00;5.00;;;;;12.34;38.30;100816.28;5075232;27;46275;-70
2022/04/18 07:14:45;;;;;;;;;8.00;8.00;;;;;12.41;38.50;100825.66;5075368;27;45390;-69
2022/04/18 07:17:11;;;;;;;;;8.00;6.75;;;;;12.51;38.17;100825.25;5075149;27;45207;-69
2022/04/18 07:19:36;;;;;;;;;6.00;6.00;;;;;12.56;37.77;100823.25;5075693;27;45379;-69
2022/04/18 07:22:02;;;;;;;;;6.00;6.00;;;;;12.63;37.63;100823.84;5076850;28;48241;-69
2022/04/18 07:24:27;;;;;;;;;6.75;6.75;;;;;12.70;37.86;100831.41;5078357;28;45258;-69
2022/04/18 07:26:53;;;;;;;;;6.75;6.00;;;;;12.74;37.70;100818.94;5078408;27;45350;-69
2022/04/18 07:29:19;;;;;;;;;7.25;7.25;;;;;12.82;37.71;100816.81;5078484;27;45588;-70
2022/04/18 07:31:44;;;;;;;;;6.00;6.00;;;;;12.94;37.66;100819.81;5078278;27;46435;-70
2022/04/18 07:34:10;;;;;;;;;6.75;5.50;;;;;13.14;37.26;100824.16;5078141;27;45437;-74
2022/04/18 07:36:35;;;;;;;;;6.00;6.00;;;;;13.23;37.23;100813.16;5078066;27;45454;-72
2022/04/18 07:39:01;;;;;;;;;6.00;6.00;;;;;13.46;37.35;100823.59;5078212;27;45556;-69
2022/04/18 07:41:28;;;;;;;;;5.00;5.00;;;;;13.51;36.61;100822.44;5077568;28;45588;-69
2022/04/18 07:43:56;;;;;;;;;6.00;6.00;;;;;13.70;36.80;100817.09;5077740;27;45271;-70
2022/04/18 07:46:21;;;;;;;;;6.75;6.75;;;;;13.96;36.64;100829.97;5077722;27;45273;-71
2022/04/18 07:48:49;;;;;;;;;5.00;5.00;;;;;14.18;36.24;100824.41;5078238;27;45551;-69
2022/04/18 07:54:00;;;;;;;;;5.50;5.50;;;;;14.63;36.10;100819.44;5077267;28;45363;-69
2022/04/18 07:56:26;;;;;;;;;4.75;4.25;;;;;14.84;35.46;100825.41;5077753;27;45465;-69
2022/04/18 07:58:52;;;;;;;;;6.00;5.00;;;;;15.02;35.32;100828.00;5077799;27;45387;-70
2022/04/18 08:01:19;;;;;;;;;8.75;7.00;;;;;15.22;35.19;100820.72;5077840;27;46183;-71
2022/04/18 08:03:46;;;;;;;;;5.25;5.00;;;;;15.44;34.91;100823.91;5076798;28;45220;-72
2022/04/18 08:06:11;;;;;;;;;9.00;7.50;;;;;15.59;35.09;100816.84;5077943;27;45480;-70
2022/04/18 08:08:37;;;;;;;;;8.25;7.00;;;;;15.76;34.04;100823.84;5078179;27;45583;-70
2022/04/18 08:11:03;;;;;;;;;7.00;5.00;;;;;15.84;33.57;100831.31;5077535;27;46440;-72
2022/04/18 08:13:28;;;;;;;;;5.75;5.75;;;;;15.85;33.53;100829.53;5077823;28;45327;-70
2022/04/18 08:15:55;;;;;;;;;6.50;6.25;;;;;15.83;33.58;100826.97;5077789;28;45211;-69
2022/04/18 08:18:21;;;;;;;;;5.75;5.75;;;;;15.82;33.52;100819.94;5077845;27;45365;-72
2022/04/18 08:20:46;;;;;;;;;8.25;7.75;;;;;15.83;33.39;100823.47;5077526;27;45349;-71
2022/04/18 08:23:12;;;;;;;;;5.75;5.75;;;;;15.82;33.40;100819.94;5077450;27;45443;-71
2022/04/18 08:25:37;;;;;;;;;4.50;4.50;;;;;15.84;33.33;100818.06;5076189;28;45485;-72
2022/04/18 08:28:03;;;;;;;;;6.00;4.50;;;;;15.91;33.79;100822.13;5077852;27;45453;-72
2022/04/18 08:30:28;;;;;;;;;10.25;8.00;;;;;15.98;33.83;100819.13;5077703;27;45412;-71
2022/04/18 08:32:54;;;;;;;;;7.00;7.00;;;;;16.06;33.20;100814.19;5075225;27;45518;-74
2022/04/18 08:35:20;;;;;;;;;6.00;6.00;;;;;16.20;32.96;100826.63;5078919;27;45334;-71
2022/04/18 08:37:46;;;;;;;;;32.00;31.00;;;;;16.29;32.96;100819.91;5076903;27;45270;-73
2022/04/18 08:40:11;;;;;;;;;12.00;10.50;;;;;16.57;32.95;100820.88;5077483;27;47008;-72
2022/04/18 08:42:38;;;;;;;;;7.75;7.75;;;;;16.82;32.48;100816.69;5075989;28;45415;-72
2022/04/18 08:45:07;;;;;;;;;11.25;9.50;;;;;17.02;32.43;100819.00;5076474;27;45189;-72
2022/04/18 08:53:04;;;;;;;;;8.00;8.00;;;;;17.37;32.20;100807.88;5077041;28;45983;-70
2022/04/18 08:55:30;;;;;;;;;10.75;9.00;;;;;17.54;31.89;100813.91;5076771;27;45489;-71
2022/04/18 08:57:56;;;;;;;;;9.25;8.75;;;;;17.62;31.88;100821.38;5075438;28;45478;-71
2022/04/18 09:00:22;;;;;;;;;11.00;9.25;;;;;17.58;31.26;100820.72;5076827;27;46095;-71
2022/04/18 09:02:47;;;;;;;;;9.00;9.00;;;;;17.58;31.63;100802.09;5077181;27;45277;-73
2022/04/18 09:05:14;;;;;;;;;12.50;12.50;;;;;17.72;31.60;100810.97;5077168;27;45550;-72
2022/04/18 09:07:44;;;;;;;;;11.25;10.25;;;;;17.75;30.91;100814.28;5077013;27;45498;-70
2022/04/18 09:10:13;;;;;;;;;13.75;12.75;;;;;17.72;31.25;100825.13;5075045;28;47274;-71
2022/04/18 09:12:42;;;;;;;;;13.75;12.75;;;;;17.70;31.13;100823.53;5076660;27;45224;-72
2022/04/18 09:15:09;;;;;;;;;11.50;10.75;;;;;17.74;31.26;100814.38;5076725;27;45479;-73
2022/04/18 09:17:36;;;;;;;;;7.00;7.00;;;;;17.80;29.95;100813.97;5076617;27;45478;-75
2022/04/18 09:20:09;;;;;;;;;13.00;11.25;;;;;17.78;30.69;100819.41;5076417;27;46148;-72
2022/04/18 09:22:46;;;;;;;;;11.25;11.25;;;;;17.78;30.86;100814.09;5076237;27;45387;-71
2022/04/18 09:25:16;;;;;;;;;7.25;7.25;;;;;17.67;30.54;100808.63;5075024;28;45200;-72
2022/04/18 09:27:53;;;;;;;;;13.25;11.00;;;;;17.66;30.83;100810.44;5074945;28;45461;-69
2022/04/18 09:30:19;;;;;;;;;10.50;10.50;;;;;17.70;30.98;100828.84;5076758;27;45974;-71
2022/04/18 09:32:55;;;;;;;;;15.25;10.50;;;;;17.88;30.98;100811.63;5076317;27;45415;-72
2022/04/18 09:35:25;;;;;;;;;11.50;9.50;;;;;17.99;30.34;100812.72;5076870;28;45239;-72
2022/04/18 09:37:51;;;;;;;;;12.25;12.25;;;;;17.98;30.56;100792.38;5076890;27;45355;-70
2022/04/18 09:40:22;;;;;;;;;10.75;9.75;;;;;18.12;30.28;100808.31;5076078;27;45482;-70
2022/04/18 09:42:52;;;;;;;;;10.50;10.50;;;;;18.14;30.46;100810.88;5075841;27;45297;-71
2022/04/18 09:45:18;;;;;;;;;4.75;4.75;;;;;18.10;30.50;100811.06;5076309;27;45307;-72
2022/04/18 09:47:43;;;;;;;;;13.25;11.75;;;;;18.02;30.31;100797.44;5074956;28;45497;-70
2022/04/18 09:53:21;;;;;;;;;9.00;9.00;;;;;18.23;30.37;100811.09;5075866;28;45282;-70
2022/04/18 09:55:49;;;;;;;;;7.00;7.00;;;;;18.25;29.82;100808.31;5076483;27;45350;-72
2022/04/18 09:58:14;;;;;;;;;13.75;13.00;;;;;18.28;29.79;100805.44;5074737;28;45299;-71
2022/04/18 10:00:41;;;;;;;;;9.00;9.00;;;;;18.38;29.81;100805.66;5075753;27;45591;-72
2022/04/18 10:03:08;;;;;;;;;9.25;9.25;;;;;18.55;29.83;100804.47;5075502;28;45423;-73
2022/04/18 10:05:34;;;;;;;;;12.00;10.25;;;;;18.68;29.58;100800.00;5075782;27;45256;-71
2022/04/18 10:08:04;;;;;;;;;11.50;10.75;;;;;18.87;29.09;100798.69;5075621;27;45656;-73
2022/04/18 10:10:34;;;;;;;;;11.75;11.75;;;;;18.93;29.03;100798.25;5075497;27;45417;-72
2022/04/18 10:13:02;;;;;;;;;14.00;14.00;;;;;19.03;29.20;100793.09;5073837;28;45373;-70
2022/04/18 10:15:27;;;;;;;;;13.50;13.50;;;;;19.19;29.26;100789.34;5075395;28;45397;-72
2022/04/18 10:17:53;;;;;;;;;13.50;13.00;;;;;19.30;29.53;100784.06;5075939;27;45340;-70
2022/04/18 10:20:37;;;;;;;;;10.00;10.00;;;;;19.44;28.65;100785.69;5073715;28;46345;-70
2022/04/18 10:23:23;;;;;;;;;13.00;11.25;;;;;19.52;28.45;100777.97;5075679;27;45317;-71
2022/04/18 10:25:48;;;;;;;;;15.00;11.75;;;;;19.64;28.34;100791.38;5073671;27;45409;-73
2022/04/18 10:28:19;;;;;;;;;9.00;9.00;;;;;19.58;28.67;100795.34;5075472;28;45291;-71
2022/04/18 10:30:49;;;;;;;;;8.00;8.00;;;;;19.55;28.29;100784.91;5073465;28;47266;-70
2022/04/18 10:33:16;;;;;;;;;8.00;8.00;;;;;19.59;27.99;100788.16;5074586;27;45387;-71
2022/04/18 10:36:12;;;;;;;;;10.00;9.00;;;;;19.66;28.24;100786.78;5074861;27;45458;-71
2022/04/18 10:38:41;;;;;;;;;10.00;10.00;;;;;19.69;28.02;100790.03;5061637;27;45591;-71
2022/04/18 10:41:36;;;;;;;;;9.50;8.00;;;;;19.54;28.20;100760.03;5074452;27;47042;-71
2022/04/18 10:44:08;;;;;;;;;7.75;7.75;;;;;19.76;27.79;100781.56;5074845;28;45379;-71
2022/04/18 10:46:38;;;;;;;;;7.50;7.50;;;;;19.83;27.77;100774.78;5074282;27;45324;-71
2022/04/18 10:49:15;;;;;;;;;8.75;8.75;;;;;19.83;27.57;100778.34;5074782;27;45318;-70
2022/04/18 10:51:41;;;;;;;;;11.00;7.50;;;;;19.84;27.96;100779.16;5074531;27;45305;-70
2022/04/18 10:54:30;;;;;;;;;11.75;8.50;;;;;19.87;27.51;100770.91;5073562;28;45132;-71
2022/04/18 10:57:11;;;;;;;;;5.75;5.75;;;;;20.05;28.01;100770.50;5074879;27;45365;-71
2022/04/18 10:59:42;;;;;;;;;7.00;6.00;;;;;20.29;27.93;100771.28;5074268;27;45364;-71
2022/04/18 11:02:29;;;;;;;;;6.00;6.00;;;;;20.52;27.50;100765.94;5073960;27;46629;-73
2022/04/18 11:04:54;;;;;;;;;8.50;8.50;;;;;20.70;26.37;100762.75;5074449;27;45446;-70
2022/04/18 11:07:36;;;;;;;;;5.50;5.50;;;;;20.66;26.70;100767.50;5074367;27;45324;-70
2022/04/18 11:10:02;;;;;;;;;4.25;4.25;;;;;20.68;26.48;100764.72;5074533;27;45361;-73
2022/04/18 11:12:33;;;;;;;;;17.50;16.50;;;;;20.71;26.70;100753.78;5074093;27;46429;-72
2022/04/18 11:15:04;;;;;;;;;7.25;6.75;;;;;20.84;26.49;100761.69;5074467;27;45227;-71
2022/04/18 11:17:37;;;;;;;;;8.00;6.00;;;;;20.76;24.31;100767.63;5074132;27;45348;-71
2022/04/18 11:20:27;;;;;;;;;9.25;7.50;;;;;20.67;25.47;100752.31;5074732;28;45429;-70
2022/04/18 11:23:26;;;;;;;;;4.00;4.00;;;;;20.73;25.85;100763.38;5073814;27;45560;-72
2022/04/18 11:25:53;;;;;;;;;6.75;6.00;;;;;20.86;24.77;100763.25;5074354;27;45444;-72
2022/04/18 11:28:18;;;;;;;;;3.00;3.00;;;;;20.91;25.16;100754.00;5073017;28;45440;-72
2022/04/18 11:30:44;;;;;;;;;9.50;8.75;;;;;21.02;25.30;100753.97;5073311;28;45482;-71
2022/04/18 11:33:09;;;;;;;;;7.00;4.50;;;;;21.19;25.23;100757.09;5074402;27;45838;-70
2022/04/18 11:35:35;;;;;;;;;3.50;3.50;;;;;21.28;24.29;100756.34;5074085;27;45360;-73
2022/04/18 11:38:07;;;;;;;;;2.00;2.00;;;;;21.35;24.08;100754.88;5074229;27;45333;-71
2022/04/18 11:40:40;;;;;;;;;3.00;3.00;;;;;21.49;22.56;100759.03;5074114;28;45322;-69
2022/04/18 11:43:17;;;;;;;;;4.00;2.50;;;;;21.54;23.00;100758.66;5073635;28;46233;-71